Time;durP1;ratioP1;P1;durP2;ratioP2;P2;SDS_P1;SDS_P2;PMS_P1;PMS_P2;Temp;Humidity;BMP_temperature;BMP_pressure;BME280_temperature;BME280_humidity;BME280_pressure;Samples;Min_cycle;Max_cycle;Signal;HPM_P1;HPM_P2
2021/12/23 00:00:45;;;;;;;20.20;12.07;;;;;;;-4.36;95.32;101842.88;5051573;28;20045;-70
2021/12/23 00:03:10;;;;;;;22.00;12.93;;;;;;;-4.22;95.00;101837.84;5052502;28;20040;-72
2021/12/23 00:05:36;;;;;;;21.93;13.00;;;;;;;-4.07;94.39;101829.56;5053081;28;20068;-74
2021/12/23 00:08:03;;;;;;;20.70;11.90;;;;;;;-4.48;93.53;101769.25;5053691;28;20032;-75
2021/12/23 00:10:29;;;;;;;20.70;12.67;;;;;;;-4.44;94.14;101794.97;5053598;28;20033;-74
2021/12/23 00:12:54;;;;;;;20.27;12.67;;;;;;;-4.25;94.69;101842.53;5015144;28;20046;-70
2021/12/23 00:17:58;;;;;;;19.75;11.68;;;;;;;-4.24;94.24;101840.19;5050137;28;20032;-71
2021/12/23 00:25:44;;;;;;;19.63;10.73;;;;;;;-4.85;94.39;101850.53;5051239;28;20445;-74
2021/12/23 00:28:09;;;;;;;19.87;11.53;;;;;;;-4.91;95.74;101844.03;5052313;28;20021;-77
2021/12/23 00:30:35;;;;;;;16.80;11.30;;;;;;;-5.26;95.72;101761.72;5050640;28;20078;-74
2021/12/23 00:33:00;;;;;;;23.27;12.47;;;;;;;-5.23;96.15;101762.09;5052149;28;20040;-76
2021/12/23 00:35:26;;;;;;;22.47;13.63;;;;;;;-4.86;96.47;101819.38;5053167;28;20025;-75
2021/12/23 00:37:58;;;;;;;18.67;11.00;;;;;;;-4.79;95.83;101821.03;5052866;28;20028;-75
2021/12/23 00:40:23;;;;;;;21.93;11.47;;;;;;;-5.11;95.44;101766.09;5052682;28;20426;-75
2021/12/23 00:42:49;;;;;;;18.60;11.93;;;;;;;-4.68;95.73;101822.31;5052710;28;20096;-75
2021/12/23 00:45:14;;;;;;;20.20;10.93;;;;;;;-4.86;95.76;101816.84;5052990;28;20033;-74
2021/12/23 00:47:39;;;;;;;19.27;11.13;;;;;;;-5.09;95.95;101786.41;5052955;28;20167;-73
2021/12/23 00:50:05;;;;;;;21.43;12.33;;;;;;;-4.77;95.96;101822.09;5052703;28;20025;-74
2021/12/23 00:52:35;;;;;;;17.87;11.57;;;;;;;-4.71;95.41;101817.78;5052785;28;20041;-74
2021/12/23 00:55:01;;;;;;;18.90;11.93;;;;;;;-4.67;95.56;101819.97;5052188;28;20040;-74
2021/12/23 00:57:28;;;;;;;18.77;11.07;;;;;;;-4.51;95.14;101825.22;5052431;28;20032;-74
2021/12/23 00:59:55;;;;;;;21.43;12.57;;;;;;;-4.43;95.00;101816.94;5034451;28;20029;-73
2021/12/23 01:02:28;;;;;;;21.07;11.87;;;;;;;-4.45;93.67;101808.31;5052510;28;20048;-74
2021/12/23 01:04:53;;;;;;;18.90;11.37;;;;;;;-4.34;93.56;101817.13;5052587;28;20033;-75
2021/12/23 01:07:19;;;;;;;19.00;11.33;;;;;;;-4.43;93.32;101818.56;5052299;28;20025;-74
2021/12/23 01:09:45;;;;;;;19.13;10.50;;;;;;;-4.47;92.91;101824.88;5052340;28;20365;-74
2021/12/23 01:12:13;;;;;;;19.03;11.57;;;;;;;-4.68;92.71;101827.38;5034561;28;20411;-74
2021/12/23 01:14:53;;;;;;;22.93;12.00;;;;;;;-4.77;92.93;101822.09;5051523;28;20035;-75
2021/12/23 01:19:51;;;;;;;19.83;10.90;;;;;;;-4.62;92.66;101818.91;5033427;28;20445;-77
2021/12/23 01:22:18;;;;;;;19.97;10.90;;;;;;;-4.48;92.91;101823.06;5031978;28;20022;-74
2021/12/23 01:24:43;;;;;;;18.80;10.70;;;;;;;-4.47;92.21;101819.81;5032035;28;20079;-75
2021/12/23 01:27:09;;;;;;;17.70;10.90;;;;;;;-4.61;92.01;101827.34;5030977;28;20521;-74
2021/12/23 01:29:34;;;;;;;17.63;11.43;;;;;;;-4.62;92.78;101818.00;5032174;28;20381;-74
2021/12/23 01:32:03;;;;;;;19.07;10.90;;;;;;;-4.63;92.60;101812.06;5031817;28;20022;-76
2021/12/23 01:34:29;;;;;;;17.13;10.65;;;;;;;-4.75;92.53;101809.00;5031566;28;20033;-77
2021/12/23 01:36:54;;;;;;;17.37;10.30;;;;;;;-4.85;92.21;101813.63;5032107;28;20029;-77
2021/12/23 01:39:20;;;;;;;26.60;10.33;;;;;;;-4.94;92.80;101812.53;5032205;28;20494;-77
2021/12/23 01:41:45;;;;;;;18.57;10.87;;;;;;;-4.94;93.15;101812.53;5010337;28;20041;-78
2021/12/23 01:44:11;;;;;;;18.23;10.90;;;;;;;-4.93;93.32;101811.81;5028954;28;20091;-76
2021/12/23 01:46:36;;;;;;;20.33;11.30;;;;;;;-4.95;92.85;101793.09;5031809;28;20476;-77
2021/12/23 01:49:02;;;;;;;19.93;11.57;;;;;;;-4.79;92.63;101798.34;5031310;28;20030;-73
2021/12/23 01:51:28;;;;;;;19.87;11.50;;;;;;;-4.78;91.48;101790.97;5031582;28;20025;-75
2021/12/23 01:53:53;;;;;;;18.80;11.60;;;;;;;-4.82;91.28;101781.25;5031693;28;20439;-76
2021/12/23 01:56:19;;;;;;;21.53;11.67;;;;;;;-4.65;91.29;101802.50;5031593;28;20034;-77
2021/12/23 01:58:45;;;;;;;21.03;11.30;;;;;;;-4.76;91.44;101784.50;5031181;28;20087;-75
2021/12/23 02:01:11;;;;;;;22.17;12.30;;;;;;;-4.61;90.95;101808.09;5031256;28;20037;-75
2021/12/23 02:03:38;;;;;;;20.87;10.83;;;;;;;-4.62;91.06;101813.88;5031049;28;20027;-75
2021/12/23 02:06:04;;;;;;;19.53;11.97;;;;;;;-4.67;91.11;101799.81;5031435;28;20040;-74
2021/12/23 02:08:30;;;;;;;20.83;12.27;;;;;;;-4.69;90.76;101790.28;4997289;28;20025;-74
2021/12/23 02:10:56;;;;;;;20.13;12.47;;;;;;;-4.64;90.86;101804.31;5031022;28;20061;-74
2021/12/23 02:13:22;;;;;;;20.73;12.17;;;;;;;-4.59;90.69;101801.59;5031076;28;20120;-75
2021/12/23 02:15:49;;;;;;;20.17;12.20;;;;;;;-4.91;90.62;101747.41;5030944;28;20040;-75
2021/12/23 02:18:14;;;;;;;20.93;12.47;;;;;;;-4.69;90.50;101805.41;5030931;28;20092;-75
2021/12/23 02:20:39;;;;;;;22.70;12.23;;;;;;;-4.75;90.35;101810.59;5031038;28;20044;-75
2021/12/23 02:23:08;;;;;;;21.17;12.27;;;;;;;-5.25;90.85;101744.25;5031204;28;20086;-75
2021/12/23 02:25:34;;;;;;;15.63;9.98;;;;;;;-5.08;91.03;101821.84;5031008;28;20104;-75
2021/12/23 02:28:07;;;;;;;22.43;12.50;;;;;;;-5.52;91.88;101795.59;5030987;28;20120;-75
2021/12/23 02:30:35;;;;;;;24.43;12.77;;;;;;;-5.53;92.51;101825.59;5030668;28;20026;-76
2021/12/23 02:33:01;;;;;;;21.50;12.73;;;;;;;-5.71;92.70;101820.13;5030566;28;20032;-76
2021/12/23 02:35:27;;;;;;;22.30;11.83;;;;;;;-5.83;93.02;101810.13;5030783;28;20029;-76
2021/12/23 02:37:52;;;;;;;24.50;12.90;;;;;;;-6.34;93.55;101725.25;5031008;28;20069;-76
2021/12/23 02:40:37;;;;;;;23.10;12.53;;;;;;;-5.82;93.49;101827.03;5029190;28;20049;-75
2021/12/23 02:43:15;;;;;;;24.13;12.63;;;;;;;-5.72;93.86;101824.94;5030480;28;20032;-75
2021/12/23 02:45:42;;;;;;;23.83;12.97;;;;;;;-5.79;93.94;101798.13;5030846;28;20037;-75
2021/12/23 02:48:13;;;;;;;25.83;13.00;;;;;;;-5.68;93.90;101819.59;5013001;28;20108;-75
2021/12/23 02:50:39;;;;;;;22.23;12.50;;;;;;;-5.76;93.82;101810.19;5030542;28;20022;-75
2021/12/23 02:53:05;;;;;;;20.90;12.10;;;;;;;-5.64;93.65;101808.28;5029649;28;20046;-75
2021/12/23 02:55:30;;;;;;;20.93;12.87;;;;;;;-5.47;93.62;101823.84;5008131;28;20111;-75
2021/12/23 02:57:56;;;;;;;21.23;12.00;;;;;;;-5.46;93.90;101817.19;5008081;28;20041;-75
2021/12/23 03:00:21;;;;;;;21.13;12.23;;;;;;;-5.65;93.33;101798.94;5007434;28;20424;-76
2021/12/23 03:02:47;;;;;;;19.87;12.47;;;;;;;-5.62;92.62;101811.88;5010419;28;20408;-76
2021/12/23 03:05:12;;;;;;;20.53;12.20;;;;;;;-5.65;92.71;101812.41;5021881;28;20180;-75
2021/12/23 03:07:38;;;;;;;21.43;12.63;;;;;;;-5.68;92.79;101812.94;5027685;28;20033;-76
2021/12/23 03:10:06;;;;;;;20.27;12.13;;;;;;;-5.79;92.85;101795.63;5027789;28;20038;-75
2021/12/23 03:12:31;;;;;;;16.83;10.60;;;;;;;-5.52;93.23;101803.13;5010826;28;20431;-75
2021/12/23 03:14:58;;;;;;;20.10;10.63;;;;;;;-5.44;92.77;101803.19;5027756;28;20033;-74
2021/12/23 03:17:23;;;;;;;19.73;11.10;;;;;;;-5.28;92.49;101803.44;5011369;28;20034;-74
2021/12/23 03:19:49;;;;;;;21.17;11.33;;;;;;;-5.21;92.39;101813.50;5027796;28;20060;-79
2021/12/23 03:22:14;;;;;;;22.90;11.40;;;;;;;-5.44;91.89;101756.25;5027830;28;20041;-78
2021/12/23 03:24:40;;;;;;;18.57;10.53;;;;;;;-5.17;91.70;101792.13;5027448;28;20033;-78
2021/12/23 03:27:05;;;;;;;17.10;10.60;;;;;;;-5.44;91.87;101755.38;5043990;28;20037;-80
2021/12/23 03:29:31;;;;;;;16.77;9.80;;;;;;;-5.18;92.25;101815.50;5049924;28;20079;-80
2021/12/23 03:31:56;;;;;;;18.53;11.30;;;;;;;-5.33;92.66;101802.88;5032263;28;20033;-80
2021/12/23 03:34:22;;;;;;;18.37;11.07;;;;;;;-5.56;92.79;101767.34;5048551;28;20031;-80
2021/12/23 03:36:47;;;;;;;18.80;10.73;;;;;;;-5.52;92.10;101785.53;5050104;28;20030;-79
2021/12/23 03:39:13;;;;;;;18.17;10.47;;;;;;;-5.27;92.06;101820.31;5049778;28;20117;-79
2021/12/23 03:41:39;;;;;;;19.77;10.53;;;;;;;-5.28;91.43;101811.88;5048324;28;20108;-79
2021/12/23 03:44:05;;;;;;;21.03;11.63;;;;;;;-5.31;91.28;101792.97;5031948;28;20123;-79
2021/12/23 03:46:30;;;;;;;20.03;11.87;;;;;;;-5.21;90.71;101814.44;5050156;28;20045;-79
2021/12/23 03:48:56;;;;;;;17.50;10.77;;;;;;;-5.24;90.87;101805.59;5049518;28;20116;-79
2021/12/23 03:51:21;;;;;;;19.17;9.90;;;;;;;-5.25;90.24;101811.34;5048643;28;20120;-78
2021/12/23 03:53:47;;;;;;;18.07;10.17;;;;;;;-5.26;90.71;101809.53;5031766;28;20084;-78
2021/12/23 03:56:14;;;;;;;20.57;10.40;;;;;;;-5.15;90.77;101836.91;5049591;28;20116;-77
2021/12/23 03:58:39;;;;;;;16.97;10.37;;;;;;;-5.12;90.78;101836.38;5049852;28;20634;-79
2021/12/23 04:01:05;;;;;;;21.23;10.23;;;;;;;-5.10;90.50;101840.00;5028131;28;20036;-78
2021/12/23 04:03:31;;;;;;;19.43;10.67;;;;;;;-5.08;90.62;101846.13;5012109;28;20040;-74
2021/12/23 04:05:56;;;;;;;17.80;11.03;;;;;;;-5.10;89.99;101845.03;5031152;28;20091;-75
2021/12/23 04:08:22;;;;;;;18.43;10.20;;;;;;;-5.19;89.79;101847.34;5033377;28;20729;-74
2021/12/23 04:10:47;;;;;;;16.27;10.37;;;;;;;-5.27;90.49;101840.44;5043681;28;20040;-73
2021/12/23 04:13:13;;;;;;;19.37;11.30;;;;;;;-5.37;90.34;101851.00;5052594;28;20035;-73
2021/12/23 04:15:38;;;;;;;19.13;11.43;;;;;;;-5.47;91.04;101840.53;5038590;28;20061;-73
2021/12/23 04:18:04;;;;;;;17.70;10.33;;;;;;;-5.31;90.90;101858.41;5033407;28;20029;-74
2021/12/23 04:20:32;;;;;;;18.60;10.57;;;;;;;-5.41;91.23;101847.25;5053470;28;20118;-73
2021/12/23 04:22:58;;;;;;;21.43;11.43;;;;;;;-5.55;91.01;101843.00;5052432;28;20036;-73
2021/12/23 04:25:25;;;;;;;19.13;11.53;;;;;;;-5.48;91.06;101859.78;5053215;28;20399;-73
2021/12/23 04:27:53;;;;;;;19.30;11.30;;;;;;;-5.53;91.10;101856.69;5053426;28;20126;-73
2021/12/23 04:30:21;;;;;;;18.87;11.83;;;;;;;-5.56;91.65;101848.78;5053363;28;20403;-73
2021/12/23 04:32:46;;;;;;;19.13;11.40;;;;;;;-5.53;91.62;101848.25;5053002;28;20025;-73
2021/12/23 04:35:12;;;;;;;18.83;10.53;;;;;;;-5.56;91.38;101840.31;5052994;28;20028;-73
2021/12/23 04:37:38;;;;;;;17.47;10.80;;;;;;;-5.41;91.09;101858.91;5052551;28;20108;-73
2021/12/23 04:40:08;;;;;;;16.90;10.70;;;;;;;-5.40;90.77;101849.03;5052983;28;20525;-73
2021/12/23 04:42:35;;;;;;;19.00;11.13;;;;;;;-5.69;90.83;101806.09;5052958;28;20035;-73
2021/12/23 04:45:00;;;;;;;19.50;11.40;;;;;;;-5.71;90.71;101802.50;5052731;28;20059;-73
2021/12/23 04:47:26;;;;;;;19.10;11.30;;;;;;;-5.39;90.83;101865.94;5052969;28;20060;-73
2021/12/23 04:49:52;;;;;;;20.67;12.40;;;;;;;-5.49;90.70;101868.03;5052858;28;20394;-73
2021/12/23 04:52:18;;;;;;;22.13;12.47;;;;;;;-5.66;90.56;101868.47;5052786;28;20045;-73
2021/12/23 04:54:43;;;;;;;23.63;12.53;;;;;;;-6.08;91.18;101819.69;5052549;28;20036;-73
2021/12/23 04:57:09;;;;;;;22.73;12.53;;;;;;;-5.72;91.15;101882.78;5050342;28;20033;-73
2021/12/23 04:59:34;;;;;;;19.70;12.27;;;;;;;-5.77;91.04;101862.13;5052807;28;20415;-73
2021/12/23 05:02:00;;;;;;;23.80;12.87;;;;;;;-5.62;90.85;101869.75;5052981;28;20111;-73
2021/12/23 05:04:29;;;;;;;23.47;12.20;;;;;;;-5.55;90.99;101869.78;5052484;28;20029;-73
2021/12/23 05:06:54;;;;;;;25.87;12.93;;;;;;;-5.61;91.39;101877.47;5052376;28;20025;-73
2021/12/23 05:09:20;;;;;;;19.73;11.47;;;;;;;-5.57;90.81;101866.19;5052358;28;20510;-73
2021/12/23 05:11:45;;;;;;;23.97;11.77;;;;;;;-5.56;90.78;101870.50;5052633;28;20037;-74
2021/12/23 05:14:11;;;;;;;18.33;11.17;;;;;;;-5.77;90.31;101873.78;5051971;28;20082;-73
2021/12/23 05:16:37;;;;;;;20.30;10.77;;;;;;;-5.85;91.33;101867.78;5051437;28;20029;-73
2021/12/23 05:19:03;;;;;;;27.37;15.30;;;;;;;-6.19;91.35;101803.28;5052158;28;20384;-73
2021/12/23 05:21:30;;;;;;;26.20;16.47;;;;;;;-5.77;91.24;101866.22;5052190;28;20091;-73
2021/12/23 05:23:55;;;;;;;21.33;12.23;;;;;;;-5.84;91.44;101854.50;5052027;28;20721;-73
2021/12/23 05:26:20;;;;;;;19.10;10.23;;;;;;;-5.87;91.00;101872.63;5051803;28;20068;-73
2021/12/23 05:28:46;;;;;;;18.53;10.87;;;;;;;-6.06;91.52;101871.06;5052235;28;20036;-73
2021/12/23 05:31:12;;;;;;;19.53;11.20;;;;;;;-6.37;92.38;101865.63;5052198;28;20411;-73
2021/12/23 05:33:37;;;;;;;18.33;10.43;;;;;;;-6.55;93.20;101873.31;5052000;28;20063;-73
2021/12/23 05:36:03;;;;;;;19.00;11.07;;;;;;;-7.00;93.22;101800.72;5000443;28;20037;-73
2021/12/23 05:38:28;;;;;;;18.43;10.97;;;;;;;-6.72;94.19;101871.16;5052180;28;20082;-73
2021/12/23 05:40:54;;;;;;;21.17;11.47;;;;;;;-6.89;94.38;101868.97;5051559;28;20037;-73
2021/12/23 05:43:19;;;;;;;19.33;11.17;;;;;;;-6.90;94.81;101864.66;5051882;28;20061;-73
2021/12/23 05:45:45;;;;;;;19.93;12.27;;;;;;;-6.94;95.37;101863.41;5050080;28;20036;-73
2021/12/23 05:48:10;;;;;;;23.97;12.20;;;;;;;-7.10;95.44;101875.56;5051725;28;20123;-74
2021/12/23 05:50:37;;;;;;;26.23;14.03;;;;;;;-7.04;95.92;101872.94;5051578;28;20032;-73
2021/12/23 05:53:02;;;;;;;24.33;13.30;;;;;;;-7.07;95.52;101865.91;5051695;28;20523;-73
2021/12/23 05:55:28;;;;;;;20.33;11.47;;;;;;;-7.15;96.08;101842.34;5051734;28;20032;-73
2021/12/23 05:57:53;;;;;;;21.50;12.20;;;;;;;-6.96;95.64;101868.94;5051494;28;20028;-73
2021/12/23 06:00:24;;;;;;;23.50;13.17;;;;;;;-7.21;96.08;101811.44;5050855;28;20399;-73
2021/12/23 06:02:50;;;;;;;21.97;12.77;;;;;;;-6.64;94.95;101874.66;5051604;28;20021;-73
2021/12/23 06:05:16;;;;;;;23.43;13.60;;;;;;;-6.48;94.79;101877.50;5051280;28;20036;-72
2021/12/23 06:07:42;;;;;;;25.23;15.93;;;;;;;-6.62;94.67;101830.53;5051346;28;20100;-73
2021/12/23 06:10:09;;;;;;;33.50;15.87;;;;;;;-6.64;94.72;101882.19;5051475;28;20029;-73
2021/12/23 06:12:35;;;;;;;24.13;14.17;;;;;;;-7.11;95.80;101821.03;5051358;28;20384;-73
2021/12/23 06:15:00;;;;;;;24.23;14.20;;;;;;;-7.08;96.13;101844.00;5051607;28;20040;-73
2021/12/23 06:17:26;;;;;;;24.07;14.10;;;;;;;-6.79;96.33;101891.16;5047590;28;20072;-74
2021/12/23 06:19:52;;;;;;;27.93;15.10;;;;;;;-6.98;96.98;101886.28;5050435;28;20033;-74
2021/12/23 06:22:18;;;;;;;30.50;15.57;;;;;;;-6.86;97.00;101892.00;5050682;28;20043;-74
2021/12/23 06:24:46;;;;;;;38.87;19.53;;;;;;;-6.79;96.63;101887.06;5051116;28;20021;-74
2021/12/23 06:27:13;;;;;;;44.53;23.17;;;;;;;-6.75;97.13;101895.88;5051019;28;20033;-73
2021/12/23 06:29:38;;;;;;;32.27;17.37;;;;;;;-6.99;97.66;101897.00;5051056;28;20036;-74
2021/12/23 06:32:04;;;;;;;44.87;26.03;;;;;;;-7.20;98.57;101882.59;5050810;28;20029;-74
2021/12/23 06:34:30;;;;;;;29.17;18.73;;;;;;;-7.05;99.29;101888.69;5043530;28;20043;-74
2021/12/23 06:36:55;;;;;;;28.27;16.50;;;;;;;-6.97;98.95;101884.69;5031004;28;20037;-74
2021/12/23 06:39:21;;;;;;;28.20;15.80;;;;;;;-6.90;98.87;101903.25;5029899;28;20057;-73
2021/12/23 06:41:46;;;;;;;31.13;18.30;;;;;;;-7.02;99.51;101892.50;5030858;28;20083;-74
2021/12/23 06:44:12;;;;;;;34.60;19.33;;;;;;;-6.84;99.55;101908.13;5030644;28;20026;-74
2021/12/23 06:46:37;;;;;;;29.07;17.70;;;;;;;-6.71;99.77;101906.50;5008529;28;20096;-74
2021/12/23 06:49:03;;;;;;;58.40;22.67;;;;;;;-6.53;99.28;101914.59;5008409;28;20100;-74
2021/12/23 06:51:29;;;;;;;34.17;18.53;;;;;;;-6.79;98.83;101851.91;5008735;28;20120;-74
2021/12/23 06:53:57;;;;;;;30.63;17.77;;;;;;;-6.27;99.02;101912.88;5008399;28;20084;-74
2021/12/23 06:56:23;;;;;;;32.37;17.63;;;;;;;-6.42;98.25;101896.75;5008376;28;20104;-74
2021/12/23 06:58:49;;;;;;;37.00;19.73;;;;;;;-6.28;99.29;101913.63;5008393;28;20041;-73
2021/12/23 07:01:20;;;;;;;35.07;17.87;;;;;;;-6.35;99.51;101914.44;4991981;28;20141;-74
2021/12/23 07:06:59;;;;;;;30.17;17.87;;;;;;;-6.21;98.72;101903.63;4988757;28;20042;-74
2021/12/23 07:09:24;;;;;;;33.73;18.10;;;;;;;-6.15;99.62;101913.56;4988314;28;20519;-74
2021/12/23 07:11:50;;;;;;;35.43;18.10;;;;;;;-6.06;100.00;101913.81;4988431;28;20131;-74
2021/12/23 07:14:16;;;;;;;30.60;19.13;;;;;;;-6.00;100.00;101904.53;4988728;28;20033;-74
2021/12/23 07:16:42;;;;;;;41.17;21.40;;;;;;;-5.94;100.00;101914.44;4993324;28;20034;-74
2021/12/23 07:19:08;;;;;;;45.70;22.90;;;;;;;-5.87;100.00;101911.97;5028129;28;20041;-74
2021/12/23 07:21:33;;;;;;;53.27;24.87;;;;;;;-5.76;100.00;101915.84;5028347;28;20036;-74
2021/12/23 07:24:00;;;;;;;50.53;25.17;;;;;;;-5.73;100.00;101917.13;5028275;28;20044;-74
2021/12/23 07:26:26;;;;;;;52.17;24.90;;;;;;;-5.90;100.00;101876.38;5028134;28;20029;-74
2021/12/23 07:28:51;;;;;;;46.23;25.00;;;;;;;-5.51;100.00;101914.75;5027922;28;20565;-74
2021/12/23 07:31:17;;;;;;;40.00;22.10;;;;;;;-5.28;100.00;101916.72;5027836;28;20104;-75
2021/12/23 07:33:42;;;;;;;38.63;22.03;;;;;;;-5.07;100.00;101910.84;5028008;28;20045;-75
2021/12/23 07:36:09;;;;;;;39.67;22.10;;;;;;;-5.32;100.00;101879.28;5027773;28;20038;-74
2021/12/23 07:38:35;;;;;;;42.93;24.13;;;;;;;-5.16;100.00;101902.19;5047825;28;20408;-74
2021/12/23 07:41:02;;;;;;;35.33;21.70;;;;;;;-4.94;100.00;101914.16;5036758;28;20108;-73
2021/12/23 07:43:42;;;;;;;33.03;18.43;;;;;;;-4.97;100.00;101922.97;5034057;28;20033;-75
2021/12/23 07:46:08;;;;;;;33.77;18.50;;;;;;;-4.80;100.00;101918.38;5033857;28;20132;-75
2021/12/23 07:48:34;;;;;;;32.70;19.43;;;;;;;-4.68;100.00;101918.97;5033957;28;20535;-75
2021/12/23 07:51:02;;;;;;;32.80;20.67;;;;;;;-4.51;100.00;101922.59;5033966;28;20036;-75
2021/12/23 07:53:28;;;;;;;30.20;17.90;;;;;;;-4.42;100.00;101906.97;5033936;28;20037;-75
2021/12/23 07:55:53;;;;;;;32.20;18.80;;;;;;;-4.15;100.00;101921.09;5033769;28;20071;-75
2021/12/23 07:58:19;;;;;;;33.13;19.33;;;;;;;-4.38;100.00;101863.75;5033862;28;20068;-75
2021/12/23 08:00:44;;;;;;;35.33;19.20;;;;;;;-3.99;100.00;101918.72;5033807;28;20532;-75
2021/12/23 08:03:10;;;;;;;34.43;21.03;;;;;;;-3.72;100.00;101906.69;5033910;28;20033;-75
2021/12/23 08:05:35;;;;;;;35.70;21.27;;;;;;;-3.60;100.00;101898.00;5034218;28;20025;-75
2021/12/23 08:08:02;;;;;;;38.97;23.67;;;;;;;-3.62;98.94;101894.41;5033804;28;20404;-75
2021/12/23 08:10:28;;;;;;;56.23;31.50;;;;;;;-3.39;98.36;101914.72;5033869;28;20079;-75
2021/12/23 08:12:54;;;;;;;37.83;22.63;;;;;;;-3.32;97.86;101926.47;5033594;28;20117;-75
2021/12/23 08:15:20;;;;;;;39.67;22.63;;;;;;;-3.60;97.40;101861.06;5033227;28;20554;-75
2021/12/23 08:17:46;;;;;;;36.33;21.93;;;;;;;-3.35;97.58;101908.41;5033453;28;20061;-74
2021/12/23 08:20:13;;;;;;;35.43;21.70;;;;;;;-3.31;98.18;101908.97;5033360;28;20029;-75
2021/12/23 08:22:39;;;;;;;36.63;22.43;;;;;;;-3.29;99.08;101917.63;5033430;28;20025;-74
2021/12/23 08:25:05;;;;;;;37.07;22.33;;;;;;;-3.16;99.02;101909.81;5031913;28;20036;-74
2021/12/23 08:27:31;;;;;;;39.40;22.33;;;;;;;-3.16;97.61;101891.25;5032221;28;20060;-74
2021/12/23 08:29:57;;;;;;;37.03;21.27;;;;;;;-3.01;97.86;101912.31;5033593;28;20127;-74
2021/12/23 08:32:23;;;;;;;37.50;22.17;;;;;;;-3.10;97.94;101912.16;5033476;28;20017;-75
2021/12/23 08:34:48;;;;;;;35.80;21.83;;;;;;;-3.25;98.26;101869.25;4997928;28;20118;-74
2021/12/23 08:37:14;;;;;;;37.50;23.40;;;;;;;-3.39;99.05;101812.84;5032773;28;20109;-74
2021/12/23 08:39:41;;;;;;;36.83;22.77;;;;;;;-2.80;97.22;101904.63;5032788;28;20021;-74
2021/12/23 08:42:08;;;;;;;39.10;23.23;;;;;;;-2.67;94.97;101896.81;5033514;28;20021;-74
2021/12/23 08:44:34;;;;;;;32.70;21.20;;;;;;;-2.56;93.41;101894.59;5031757;28;20407;-75
2021/12/23 08:47:00;;;;;;;35.27;21.60;;;;;;;-2.44;93.96;101890.94;5032773;28;20041;-74
2021/12/23 08:49:26;;;;;;;35.50;21.13;;;;;;;-2.64;94.72;101844.06;5032888;28;20056;-75
2021/12/23 08:51:52;;;;;;;37.57;20.93;;;;;;;-2.30;94.18;101872.22;5031140;28;20041;-75
2021/12/23 08:54:18;;;;;;;34.17;21.37;;;;;;;-2.21;93.54;101883.34;5032638;28;20038;-75
2021/12/23 08:56:43;;;;;;;38.30;22.20;;;;;;;-2.13;93.54;101889.25;5033055;28;20041;-75
2021/12/23 08:59:09;;;;;;;34.43;22.07;;;;;;;-2.16;94.57;101864.50;5031420;28;20025;-75
2021/12/23 09:01:35;;;;;;;37.83;22.03;;;;;;;-2.00;94.97;101877.22;5031704;28;20044;-75
2021/12/23 09:04:01;;;;;;;33.30;21.10;;;;;;;-1.93;92.89;101873.75;5032429;28;20036;-75
2021/12/23 09:06:26;;;;;;;38.97;22.57;;;;;;;-1.98;93.37;101872.34;5032387;28;20476;-76
2021/12/23 09:08:54;;;;;;;41.17;25.27;;;;;;;-1.92;93.32;101860.34;5032583;28;20033;-75
2021/12/23 09:11:20;;;;;;;37.53;21.47;;;;;;;-1.80;92.72;101861.69;5015039;28;20037;-75
2021/12/23 09:13:45;;;;;;;36.50;21.50;;;;;;;-1.88;92.42;101853.97;5032510;28;20548;-75
2021/12/23 09:16:11;;;;;;;36.00;20.70;;;;;;;-1.74;92.27;101858.94;5030980;28;20029;-75
2021/12/23 09:18:36;;;;;;;34.50;20.77;;;;;;;-1.69;91.97;101854.38;5032441;28;20033;-75
2021/12/23 09:21:03;;;;;;;33.90;21.10;;;;;;;-1.61;92.23;101848.47;5031970;28;20029;-75
2021/12/23 09:23:28;;;;;;;36.67;22.90;;;;;;;-1.51;90.85;101836.09;5032696;28;20424;-75
2021/12/23 09:25:54;;;;;;;39.53;22.07;;;;;;;-1.40;91.32;101836.34;5034595;28;20070;-75
2021/12/23 09:28:42;;;;;;;32.33;21.87;;;;;;;-1.43;90.08;101831.84;5050438;28;20178;-75
2021/12/23 09:33:51;;;;;;;35.10;19.57;;;;;;;-1.36;90.64;101825.78;5044238;28;20546;-74
2021/12/23 09:36:17;;;;;;;35.57;22.57;;;;;;;-1.29;90.37;101822.28;5042140;28;20026;-74
2021/12/23 09:38:43;;;;;;;34.10;19.87;;;;;;;-1.07;90.16;101816.22;5040442;28;20087;-74
2021/12/23 09:41:15;;;;;;;34.30;20.97;;;;;;;-1.23;88.45;101798.50;5041776;28;20498;-74
2021/12/23 09:43:41;;;;;;;35.83;21.27;;;;;;;-0.99;88.15;101801.81;5044752;28;20719;-74
2021/12/23 09:46:09;;;;;;;37.40;22.27;;;;;;;-0.98;87.46;101768.13;5047524;28;20033;-75
2021/12/23 09:48:37;;;;;;;34.60;22.10;;;;;;;-0.83;86.78;101759.56;5031959;28;20028;-74
2021/12/23 09:51:05;;;;;;;34.73;21.57;;;;;;;-0.52;86.23;101789.72;5046468;28;20091;-75
2021/12/23 09:53:33;;;;;;;37.10;21.57;;;;;;;-0.68;86.13;101759.34;5044174;28;20106;-74
2021/12/23 09:55:59;;;;;;;32.97;19.87;;;;;;;-0.42;86.19;101783.97;5049305;28;20479;-74
2021/12/23 09:58:25;;;;;;;35.50;21.83;;;;;;;-0.40;86.15;101785.91;5043843;28;20029;-74
2021/12/23 10:00:53;;;;;;;31.47;20.10;;;;;;;-0.34;85.25;101757.72;5040878;28;20022;-74
2021/12/23 10:03:21;;;;;;;39.37;23.60;;;;;;;-0.01;83.69;101775.44;5039489;28;20119;-74
2021/12/23 10:05:47;;;;;;;40.07;25.20;;;;;;;-0.04;83.61;101736.16;5041489;28;20263;-75
2021/12/23 10:08:14;;;;;;;34.60;21.73;;;;;;;0.28;82.18;101761.31;5041175;28;20034;-74
2021/12/23 10:10:50;;;;;;;33.57;21.57;;;;;;;0.29;83.99;101763.13;5041329;28;20021;-75
2021/12/23 10:38:06;;;;;;;26.40;17.43;;;;;;;1.00;78.30;101723.31;5043599;28;20091;-75
2021/12/23 10:40:33;;;;;;;27.23;18.57;;;;;;;0.94;78.03;101714.34;5041493;28;20036;-75
2021/12/23 10:42:59;;;;;;;32.43;18.70;;;;;;;0.98;79.73;101714.66;5040961;28;20488;-75
2021/12/23 10:45:39;;;;;;;34.10;19.47;;;;;;;0.77;79.41;101697.50;5039129;28;20064;-75
2021/12/23 10:48:12;;;;;;;27.63;17.80;;;;;;;0.99;79.20;101711.38;5039287;28;20447;-75
2021/12/23 10:53:29;;;;;;;31.27;18.73;;;;;;;1.03;77.68;101701.63;5035233;28;20045;-75
2021/12/23 10:59:17;;;;;;;28.27;18.27;;;;;;;1.13;77.57;101693.22;5030328;28;20105;-75
2021/12/23 11:02:21;;;;;;;30.97;19.00;;;;;;;1.19;78.39;101698.00;5045194;28;20120;-75
2021/12/23 11:05:26;;;;;;;28.03;18.13;;;;;;;1.11;78.38;101694.75;5029715;28;20025;-75
2021/12/23 11:41:00;;;;;;;29.00;18.17;;;;;;;1.50;75.18;101635.59;4934534;29;20497;-77
2021/12/23 11:45:53;;;;;;;25.73;16.43;;;;;;;1.49;71.90;101630.38;4972935;28;20111;-73
2021/12/23 11:48:18;;;;;;;22.57;13.83;;;;;;;1.38;72.17;101627.72;4972759;28;20125;-73
2021/12/23 11:53:29;;;;;;;23.20;13.87;;;;;;;1.44;70.28;101600.28;5044660;28;20187;-73
2021/12/23 11:55:55;;;;;;;23.07;13.80;;;;;;;1.60;70.52;101614.44;5052552;28;20037;-74
2021/12/23 11:58:24;;;;;;;21.87;13.10;;;;;;;1.45;70.55;101588.47;5032096;28;20166;-74
2021/12/23 12:01:13;;;;;;;19.42;12.27;;;;;;;1.67;70.31;101596.44;5053492;28;20041;-74
2021/12/23 12:03:51;;;;;;;21.52;12.43;;;;;;;1.31;68.56;101599.03;4972122;28;20114;-74
2021/12/23 12:06:20;;;;;;;19.77;12.50;;;;;;;1.21;68.22;101577.84;4972293;28;20054;-74
2021/12/23 12:08:46;;;;;;;18.70;12.60;;;;;;;1.36;69.16;101588.53;4971505;28;20043;-74
2021/12/23 12:11:18;;;;;;;20.00;12.70;;;;;;;1.57;68.79;101598.88;4956198;28;20282;-77
2021/12/23 12:13:44;;;;;;;26.33;13.77;;;;;;;1.62;70.16;101587.47;4972210;28;20030;-75
2021/12/23 12:16:32;;;;;;;22.30;12.67;;;;;;;1.79;68.01;101599.16;4973750;28;20035;-74
2021/12/23 12:18:58;;;;;;;18.03;11.70;;;;;;;1.69;67.31;101589.78;4972182;28;20524;-77
2021/12/23 12:21:30;;;;;;;16.13;10.27;;;;;;;1.70;66.60;101576.31;4991099;28;20424;-76
2021/12/23 12:24:18;;;;;;;14.63;9.50;;;;;;;1.83;65.12;101585.06;4991158;28;20042;-75
2021/12/23 12:26:58;;;;;;;14.80;9.10;;;;;;;1.79;65.07;101594.06;4990790;28;20401;-78
2021/12/23 12:29:38;;;;;;;15.70;9.37;;;;;;;1.76;64.38;101594.69;4991407;28;20064;-77
2021/12/23 12:32:05;;;;;;;15.35;8.45;;;;;;;1.84;63.40;101581.78;4991261;28;20053;-76
2021/12/23 12:34:33;;;;;;;14.37;9.00;;;;;;;1.82;61.45;101603.63;4990064;28;20105;-73